createdAt,value
2022-09-16T00:00:44.242Z,99281.94
2022-09-16T00:03:12.057Z,99288.91
2022-09-16T00:05:47.137Z,99295.53
2022-09-16T00:08:14.813Z,99303.28
2022-09-16T00:10:43.645Z,99309.91
2022-09-16T00:13:11.736Z,99298.16
2022-09-16T00:15:42.892Z,99287.00
2022-09-16T00:18:10.885Z,99289.81
2022-09-16T00:20:44.258Z,99287.91
2022-09-16T00:23:11.305Z,99285.00
2022-09-16T00:25:38.114Z,99288.75
2022-09-16T00:28:04.945Z,99293.31
2022-09-16T00:30:32.023Z,99285.88
2022-09-16T00:32:58.804Z,99292.72
2022-09-16T00:35:25.660Z,99301.84
2022-09-16T00:37:52.693Z,99310.59
2022-09-16T00:40:19.584Z,99312.91
2022-09-16T00:42:46.530Z,99315.66
2022-09-16T00:45:17.661Z,99318.44
2022-09-16T00:47:51.649Z,99327.88
2022-09-16T00:50:28.101Z,99349.50
2022-09-16T00:52:55.890Z,99341.69
2022-09-16T00:55:28.735Z,99335.34
2022-09-16T00:57:57.591Z,99329.84
2022-09-16T01:00:24.631Z,99340.63
2022-09-16T01:02:51.681Z,99341.97
2022-09-16T01:05:26.558Z,99338.87
2022-09-16T01:07:54.409Z,99300.81
2022-09-16T01:10:23.279Z,99329.03
2022-09-16T01:12:54.750Z,99335.38
2022-09-16T01:15:24.544Z,99331.88
2022-09-16T01:17:57.148Z,99338.56
2022-09-16T01:20:37.347Z,99347.13
2022-09-16T01:23:29.211Z,99351.06
2022-09-16T01:26:15.060Z,99345.63
2022-09-16T01:28:59.246Z,99342.97
2022-09-16T01:31:51.351Z,99348.97
2022-09-16T01:34:30.941Z,99336.50
2022-09-16T01:37:10.153Z,99342.25
2022-09-16T01:40:14.827Z,99333.59
2022-09-16T01:43:12.908Z,99338.56
2022-09-16T01:45:44.907Z,99340.31
2022-09-16T01:48:19.525Z,99355.28
2022-09-16T01:50:50.050Z,99351.34
2022-09-16T01:53:25.050Z,99356.72
2022-09-16T01:55:59.434Z,99364.47
2022-09-16T01:58:38.923Z,99361.78
2022-09-16T02:01:10.296Z,99374.53
2022-09-16T02:03:39.791Z,99351.16
2022-09-16T02:06:09.691Z,99352.22
2022-09-16T02:08:42.176Z,99341.03
2022-09-16T02:11:10.219Z,99347.19
2022-09-16T02:13:42.748Z,99351.84
2022-09-16T02:16:20.614Z,99352.91
2022-09-16T02:18:53.240Z,99349.50
2022-09-16T02:21:23.229Z,99336.34
2022-09-16T02:23:56.983Z,99354.31
2022-09-16T02:26:30.169Z,99366.72
2022-09-16T02:28:58.359Z,99364.25
2022-09-16T02:31:33.540Z,99367.00
2022-09-16T02:34:04.255Z,99385.13
2022-09-16T02:36:32.364Z,99383.13
2022-09-16T02:39:08.550Z,99393.59
2022-09-16T02:41:39.524Z,99383.56
2022-09-16T02:44:06.833Z,99380.34
2022-09-16T02:47:01.020Z,99385.31
2022-09-16T02:49:49.737Z,99382.03
2022-09-16T02:52:34.448Z,99380.66
2022-09-16T02:55:21.111Z,99382.59
2022-09-16T02:57:49.588Z,99386.03
2022-09-16T03:00:17.051Z,99382.38
2022-09-16T03:02:44.300Z,99381.53
2022-09-16T03:05:11.104Z,99389.16
2022-09-16T03:07:39.768Z,99391.91
2022-09-16T03:10:07.019Z,99391.56
2022-09-16T03:13:08.816Z,99391.75
2022-09-16T03:16:00.474Z,99403.66
2022-09-16T03:18:37.593Z,99401.63
2022-09-16T03:21:17.780Z,99402.22
2022-09-16T03:24:10.762Z,99394.91
2022-09-16T03:26:57.016Z,99392.88
2022-09-16T03:29:28.156Z,99399.69
2022-09-16T03:31:59.538Z,99392.53
2022-09-16T03:34:34.212Z,99390.16
2022-09-16T03:37:09.886Z,99405.56
2022-09-16T03:39:37.186Z,99411.72
2022-09-16T03:42:07.930Z,99407.50
2022-09-16T03:44:35.520Z,99418.78
2022-09-16T03:47:03.491Z,99403.53
2022-09-16T03:49:30.745Z,99395.53
2022-09-16T03:51:58.005Z,99387.56
2022-09-16T03:54:24.951Z,99397.97
2022-09-16T03:56:51.985Z,99391.69
2022-09-16T03:59:18.902Z,99392.34
2022-09-16T04:01:46.369Z,99398.34
2022-09-16T04:04:13.642Z,99411.81
2022-09-16T04:06:40.440Z,99414.06
2022-09-16T04:09:08.337Z,99415.72
2022-09-16T04:11:35.543Z,99403.34
2022-09-16T04:14:06.072Z,99399.50
2022-09-16T04:16:32.819Z,99399.97
2022-09-16T04:19:00.319Z,99413.28
2022-09-16T04:21:27.842Z,99416.78
2022-09-16T04:23:54.762Z,99417.97
2022-09-16T04:26:21.930Z,99407.31
2022-09-16T04:28:48.737Z,99409.50
2022-09-16T04:31:16.123Z,99422.50
2022-09-16T04:33:43.229Z,99427.31
2022-09-16T04:36:12.503Z,99420.63
2022-09-16T04:38:40.428Z,99416.53
2022-09-16T04:41:10.742Z,99411.44
2022-09-16T04:43:37.528Z,99411.56
2022-09-16T04:46:04.756Z,99422.00
2022-09-16T04:48:31.853Z,99417.31
2022-09-16T04:51:03.890Z,99424.56
2022-09-16T04:53:30.695Z,99423.88
2022-09-16T04:56:09.339Z,99432.19
2022-09-16T04:58:36.624Z,99435.13
2022-09-16T05:01:14.427Z,99429.44
2022-09-16T05:03:46.402Z,99421.94
2022-09-16T05:06:19.843Z,99406.16
2022-09-16T05:08:48.199Z,99414.44
2022-09-16T05:11:21.000Z,99414.53
2022-09-16T05:13:48.020Z,99429.31
2022-09-16T05:16:17.360Z,99440.53
2022-09-16T05:18:46.277Z,99425.84
2022-09-16T05:21:15.253Z,99434.12
2022-09-16T05:23:46.708Z,99433.47
2022-09-16T05:26:18.656Z,99432.94
2022-09-16T05:28:46.063Z,99435.88
2022-09-16T05:31:26.611Z,99441.84
2022-09-16T05:34:14.173Z,99452.56
2022-09-16T05:36:43.265Z,99447.81
2022-09-16T05:39:23.339Z,99445.34
2022-09-16T05:41:52.387Z,99445.63
2022-09-16T05:44:19.772Z,99435.72
2022-09-16T05:46:46.570Z,99435.00
2022-09-16T05:49:13.403Z,99440.22
2022-09-16T05:51:41.939Z,99445.16
2022-09-16T05:54:08.767Z,99442.34
2022-09-16T05:56:38.844Z,99448.41
2022-09-16T05:59:11.516Z,99438.31
2022-09-16T06:01:38.506Z,99446.38
2022-09-16T06:04:08.054Z,99454.59
2022-09-16T06:06:37.379Z,99464.62
2022-09-16T06:09:12.157Z,99465.75
2022-09-16T06:11:41.219Z,99469.81
2022-09-16T06:14:08.555Z,99464.50
2022-09-16T06:16:38.807Z,99470.19
2022-09-16T06:19:13.120Z,99457.94
2022-09-16T06:21:40.959Z,99458.97
2022-09-16T06:24:08.924Z,99444.00
2022-09-16T06:26:37.883Z,99436.72
2022-09-16T06:29:08.553Z,99437.19
2022-09-16T06:31:36.697Z,99425.69
2022-09-16T06:34:03.998Z,99442.72
2022-09-16T06:36:38.618Z,99446.47
2022-09-16T06:39:11.448Z,99444.09
2022-09-16T06:41:38.208Z,99443.72
2022-09-16T06:44:08.148Z,99451.78
2022-09-16T06:46:38.699Z,99442.03
2022-09-16T06:49:10.898Z,99449.75
2022-09-16T06:51:38.243Z,99447.34
2022-09-16T06:54:09.028Z,99452.56
2022-09-16T06:56:37.634Z,99450.09
2022-09-16T06:59:05.265Z,99451.75
2022-09-16T07:01:35.241Z,99466.03
2022-09-16T07:04:08.142Z,99454.94
2022-09-16T07:09:22.230Z,99469.53
2022-09-16T07:11:49.360Z,99471.53
2022-09-16T07:14:16.171Z,99479.09
2022-09-16T07:16:43.038Z,99468.94
2022-09-16T07:19:10.331Z,99468.81
2022-09-16T07:21:37.154Z,99476.63
2022-09-16T07:24:04.152Z,99485.09
2022-09-16T07:26:37.632Z,99479.41
2022-09-16T07:29:10.876Z,99488.00
2022-09-16T07:31:38.274Z,99484.56
2022-09-16T07:34:06.843Z,99488.06
2022-09-16T07:36:41.643Z,99486.28
2022-09-16T07:39:09.255Z,99480.56
2022-09-16T07:41:44.450Z,99487.34
2022-09-16T07:44:14.072Z,99496.47
2022-09-16T07:46:41.268Z,99498.53
2022-09-16T07:49:09.175Z,99504.00
2022-09-16T07:51:36.640Z,99500.38
2022-09-16T07:54:08.522Z,99497.53
2022-09-16T07:56:39.872Z,99503.28
2022-09-16T07:59:13.057Z,99503.72
2022-09-16T08:01:43.718Z,99505.22
2022-09-16T08:04:10.985Z,99505.03
2022-09-16T08:06:39.278Z,99513.53
2022-09-16T08:09:27.394Z,99511.41
2022-09-16T08:11:56.038Z,99515.22
2022-09-16T08:14:22.848Z,99514.50
2022-09-16T08:16:51.530Z,99506.00
2022-09-16T08:19:20.420Z,99518.03
2022-09-16T08:21:47.281Z,99499.09
2022-09-16T08:24:14.177Z,99499.72
2022-09-16T08:26:43.665Z,99502.16
2022-09-16T08:29:10.815Z,99490.87
2022-09-16T08:31:38.572Z,99498.50
2022-09-16T08:34:05.947Z,99499.56
2022-09-16T08:36:35.791Z,99495.09
2022-09-16T08:39:05.533Z,99505.13
2022-09-16T08:41:55.756Z,99510.56
2022-09-16T08:44:28.355Z,99515.94
2022-09-16T08:46:58.890Z,99512.94
2022-09-16T08:49:41.234Z,99510.66
2022-09-16T08:52:29.685Z,99501.72
2022-09-16T08:54:59.649Z,99518.38
2022-09-16T08:57:29.364Z,99525.81
2022-09-16T09:00:07.099Z,99533.06
2022-09-16T09:02:52.999Z,99542.97
2022-09-16T09:05:34.730Z,99537.00
2022-09-16T09:08:05.880Z,99539.16
2022-09-16T09:10:50.468Z,99542.75
2022-09-16T09:13:44.360Z,99528.41
2022-09-16T09:16:49.122Z,99529.88
2022-09-16T09:19:41.062Z,99521.87
2022-09-16T09:22:38.374Z,99516.97
2022-09-16T09:25:13.792Z,99508.94
2022-09-16T09:27:50.220Z,99502.12
2022-09-16T09:30:25.779Z,99500.00
2022-09-16T09:33:34.122Z,99505.28
2022-09-16T09:36:04.547Z,99507.66
2022-09-16T09:38:52.173Z,99509.31
2022-09-16T09:41:39.451Z,99506.91
2022-09-16T09:44:30.089Z,99520.16
2022-09-16T09:47:03.577Z,99522.72
2022-09-16T09:49:36.806Z,99525.91
2022-09-16T09:52:17.350Z,99512.59
2022-09-16T09:54:45.236Z,99527.91
2022-09-16T09:57:16.861Z,99527.13
2022-09-16T09:59:51.608Z,99518.63
2022-09-16T10:02:21.399Z,99507.09
2022-09-16T10:04:48.989Z,99498.16
2022-09-16T10:07:18.615Z,99503.56
2022-09-16T10:09:49.200Z,99504.81
2022-09-16T10:12:29.891Z,99509.00
2022-09-16T10:14:57.363Z,99505.91
2022-09-16T10:17:25.467Z,99513.16
2022-09-16T10:19:56.293Z,99521.87
2022-09-16T10:22:31.717Z,99516.56
2022-09-16T10:25:01.054Z,99507.66
2022-09-16T10:27:35.718Z,99503.97
2022-09-16T10:30:05.869Z,99503.59
2022-09-16T10:32:39.327Z,99502.53
2022-09-16T10:35:07.834Z,99503.38
2022-09-16T10:37:34.896Z,99497.87
2022-09-16T10:40:03.754Z,99490.72
2022-09-16T10:42:31.232Z,99490.13
2022-09-16T10:45:28.141Z,99503.34
2022-09-16T10:47:59.981Z,99491.78
2022-09-16T10:50:28.982Z,99498.56
2022-09-16T10:52:56.102Z,99503.97
2022-09-16T10:55:36.476Z,99500.03
2022-09-16T10:58:33.059Z,99505.16
2022-09-16T11:01:25.843Z,99515.03
2022-09-16T11:04:31.178Z,99511.41
2022-09-16T11:07:10.761Z,99509.34
2022-09-16T11:10:23.225Z,99517.38
2022-09-16T11:13:27.607Z,99514.91
2022-09-16T11:16:08.123Z,99511.09
2022-09-16T11:18:52.965Z,99508.50
2022-09-16T11:21:45.082Z,99513.34
2022-09-16T11:24:43.937Z,99497.47
2022-09-16T11:27:33.933Z,99495.66
2022-09-16T11:30:10.661Z,99489.03
2022-09-16T11:33:05.975Z,99484.91
2022-09-16T11:35:53.027Z,99490.78
2022-09-16T11:38:42.368Z,99493.47
2022-09-16T11:41:20.156Z,99483.97
2022-09-16T11:43:57.010Z,99490.87
2022-09-16T11:46:59.363Z,99484.88
2022-09-16T11:49:47.114Z,99477.09
2022-09-16T11:52:57.367Z,99475.81
2022-09-16T11:56:08.681Z,99469.59
2022-09-16T11:58:58.201Z,99471.97
2022-09-16T12:01:31.491Z,99477.00
2022-09-16T12:04:06.144Z,99472.12
2022-09-16T12:07:16.541Z,99468.31
2022-09-16T12:10:04.363Z,99459.50
2022-09-16T12:12:40.803Z,99450.28
2022-09-16T12:15:31.025Z,99457.38
2022-09-16T12:18:02.056Z,99461.34
2022-09-16T12:20:35.567Z,99461.50
2022-09-16T12:23:06.603Z,99460.91
2022-09-16T12:25:45.987Z,99448.50
2022-09-16T12:28:20.598Z,99443.25
2022-09-16T12:31:06.804Z,99462.72
2022-09-16T12:33:40.459Z,99461.72
2022-09-16T12:36:11.069Z,99456.53
2022-09-16T12:38:38.252Z,99450.09
2022-09-16T12:41:08.040Z,99449.75
2022-09-16T12:44:06.467Z,99442.13
2022-09-16T12:47:14.828Z,99436.34
2022-09-16T12:50:15.836Z,99435.47
2022-09-16T12:52:54.834Z,99427.69
2022-09-16T12:55:41.868Z,99424.66
2022-09-16T12:58:36.175Z,99432.91
2022-09-16T13:01:09.210Z,99428.19
2022-09-16T13:03:39.682Z,99433.28
2022-09-16T13:06:18.440Z,99423.31
2022-09-16T13:08:45.402Z,99421.28
2022-09-16T13:12:24.063Z,99428.03
2022-09-16T13:14:22.103Z,99413.41
2022-09-16T13:16:57.432Z,99425.28
2022-09-16T13:19:30.180Z,99426.09
2022-09-16T13:21:59.528Z,99417.22
2022-09-16T13:24:38.699Z,99415.28
2022-09-16T13:27:25.141Z,99412.38
2022-09-16T13:29:51.996Z,99421.78
2022-09-16T13:32:46.102Z,99416.41
2022-09-16T13:35:18.544Z,99408.44
2022-09-16T13:37:49.952Z,99414.19
2022-09-16T13:40:26.424Z,99406.59
2022-09-16T13:43:09.041Z,99413.78
2022-09-16T13:45:41.355Z,99405.81
2022-09-16T13:48:19.126Z,99402.66
2022-09-16T13:50:51.421Z,99386.22
2022-09-16T13:53:23.280Z,99389.25
2022-09-16T13:55:50.679Z,99386.59
2022-09-16T13:58:30.885Z,99392.31
2022-09-16T14:01:18.953Z,99370.56
2022-09-16T14:04:04.581Z,99362.59
2022-09-16T14:06:49.748Z,99377.59
2022-09-16T14:09:26.736Z,99371.41
2022-09-16T14:12:03.842Z,99378.88
2022-09-16T14:14:48.483Z,99380.34
2022-09-16T14:17:27.731Z,99381.09
2022-09-16T14:19:59.489Z,99376.41
2022-09-16T14:22:27.510Z,99367.91
2022-09-16T14:25:05.902Z,99358.00
2022-09-16T14:27:36.710Z,99362.09
2022-09-16T14:30:15.741Z,99367.47
2022-09-16T14:32:42.702Z,99375.28
2022-09-16T14:35:14.105Z,99371.59
2022-09-16T14:37:41.017Z,99374.50
2022-09-16T14:40:13.721Z,99374.09
2022-09-16T14:43:00.488Z,99374.50
2022-09-16T14:45:29.282Z,99356.34
2022-09-16T14:47:58.691Z,99365.88
2022-09-16T14:50:28.561Z,99350.19
2022-09-16T14:52:57.976Z,99341.16
2022-09-16T14:55:27.358Z,99346.06
2022-09-16T14:57:54.210Z,99346.91
2022-09-16T15:00:21.528Z,99352.28
2022-09-16T15:03:05.570Z,99349.34
2022-09-16T15:05:34.608Z,99346.69
2022-09-16T15:08:21.703Z,99341.97
2022-09-16T15:10:52.984Z,99340.28
2022-09-16T15:13:26.368Z,99339.06
2022-09-16T15:15:59.845Z,99331.44
2022-09-16T15:18:33.784Z,99333.72
2022-09-16T15:21:16.932Z,99334.50
2022-09-16T15:23:48.135Z,99351.22
2022-09-16T15:26:38.488Z,99342.56
2022-09-16T15:29:17.965Z,99349.38
2022-09-16T15:31:45.696Z,99350.19
2022-09-16T15:34:18.663Z,99352.44
2022-09-16T15:36:47.583Z,99360.03
2022-09-16T15:39:26.227Z,99353.03
2022-09-16T15:42:18.944Z,99364.12
2022-09-16T15:44:54.623Z,99359.81
2022-09-16T15:47:29.691Z,99371.16
2022-09-16T15:50:07.554Z,99362.91
2022-09-16T15:53:03.526Z,99365.38
2022-09-16T15:55:41.843Z,99367.22
2022-09-16T15:58:37.677Z,99373.56
2022-09-16T16:01:11.538Z,99361.19
2022-09-16T16:03:59.825Z,99352.53
2022-09-16T16:06:58.497Z,99362.66
2022-09-16T16:09:28.202Z,99354.91
2022-09-16T16:11:58.088Z,99341.25
2022-09-16T16:14:32.077Z,99336.31
2022-09-16T16:17:12.879Z,99329.69
2022-09-16T16:19:44.740Z,99326.44
2022-09-16T16:22:12.201Z,99329.25
2022-09-16T16:24:39.342Z,99334.12
2022-09-16T16:27:06.897Z,99327.53
2022-09-16T16:29:33.681Z,99324.25
2022-09-16T16:32:11.482Z,99321.91
2022-09-16T16:34:40.837Z,99322.19
2022-09-16T16:37:08.595Z,99328.75
2022-09-16T16:39:35.692Z,99310.94
2022-09-16T16:42:04.911Z,99300.47
2022-09-16T16:44:32.886Z,99296.12
2022-09-16T16:47:00.339Z,99296.19
2022-09-16T16:49:27.632Z,99299.59
2022-09-16T16:52:00.722Z,99303.25
2022-09-16T16:54:28.263Z,99310.72
2022-09-16T16:56:55.675Z,99308.97
2022-09-16T16:59:22.859Z,99303.69
2022-09-16T17:01:55.446Z,99317.38
2022-09-16T17:04:23.410Z,99317.09
2022-09-16T17:07:08.282Z,99316.34
2022-09-16T17:09:38.225Z,99306.38
2022-09-16T17:12:05.514Z,99303.69
2022-09-16T17:14:33.245Z,99310.56
2022-09-16T17:17:02.483Z,99308.66
2022-09-16T17:19:29.688Z,99293.72
2022-09-16T17:21:57.691Z,99296.78
2022-09-16T17:24:24.531Z,99291.00
2022-09-16T17:26:51.545Z,99283.25
2022-09-16T17:29:18.413Z,99277.41
2022-09-16T17:31:45.247Z,99287.13
2022-09-16T17:34:14.016Z,99293.22
2022-09-16T17:36:43.371Z,99290.56
2022-09-16T17:39:16.000Z,99294.34
2022-09-16T17:41:44.026Z,99295.66
2022-09-16T17:44:12.032Z,99296.41
2022-09-16T17:46:39.827Z,99306.56
2022-09-16T17:49:13.047Z,99303.75
2022-09-16T17:51:40.028Z,99303.25
2022-09-16T17:54:08.656Z,99310.22
2022-09-16T17:56:38.398Z,99317.31
2022-09-16T17:59:08.973Z,99308.53
2022-09-16T18:01:39.367Z,99309.50
2022-09-16T18:04:10.455Z,99307.41
2022-09-16T18:06:43.115Z,99301.06
2022-09-16T18:09:10.883Z,99315.66
2022-09-16T18:11:38.622Z,99314.28
2022-09-16T18:14:11.072Z,99304.62
2022-09-16T18:16:38.347Z,99303.03
2022-09-16T18:19:05.858Z,99305.66
2022-09-16T18:21:33.437Z,99307.91
2022-09-16T18:24:02.596Z,99321.69
2022-09-16T18:26:30.673Z,99325.38
2022-09-16T18:29:13.863Z,99323.94
2022-09-16T18:31:43.586Z,99325.38
2022-09-16T18:34:11.354Z,99328.31
2022-09-16T18:36:39.276Z,99335.66
2022-09-16T18:39:16.666Z,99332.44
2022-09-16T18:41:45.069Z,99317.38
2022-09-16T18:44:20.779Z,99320.13
2022-09-16T18:46:47.859Z,99311.66
2022-09-16T18:49:16.222Z,99311.03
2022-09-16T18:51:52.132Z,99312.50
2022-09-16T18:54:29.205Z,99308.94
2022-09-16T18:56:58.888Z,99310.06
2022-09-16T18:59:28.965Z,99307.50
2022-09-16T19:01:57.880Z,99297.81
2022-09-16T19:04:27.599Z,99294.25
2022-09-16T19:06:56.109Z,99302.91
2022-09-16T19:09:23.946Z,99299.59
2022-09-16T19:11:54.857Z,99303.28
2022-09-16T19:14:24.465Z,99301.91
2022-09-16T19:16:53.207Z,99298.59
2022-09-16T19:19:21.019Z,99304.75
2022-09-16T19:21:48.034Z,99315.06
2022-09-16T19:24:17.800Z,99316.69
2022-09-16T19:26:45.471Z,99321.19
2022-09-16T19:29:13.974Z,99316.53
2022-09-16T19:31:42.536Z,99306.69
2022-09-16T19:34:09.908Z,99304.19
2022-09-16T19:36:37.165Z,99300.41
2022-09-16T19:39:08.404Z,99304.72
2022-09-16T19:41:39.249Z,99296.47
2022-09-16T19:44:09.759Z,99297.47
2022-09-16T19:46:37.702Z,99304.56
2022-09-16T19:49:08.577Z,99305.88
2022-09-16T19:51:35.739Z,99308.91
2022-09-16T19:54:05.149Z,99311.53
2022-09-16T19:56:35.487Z,99301.91
2022-09-16T19:59:05.312Z,99296.12
2022-09-16T20:01:35.719Z,99300.56
2022-09-16T20:04:06.454Z,99303.50
2022-09-16T20:06:37.123Z,99303.12
2022-09-16T20:09:11.996Z,99308.34
2022-09-16T20:11:41.668Z,99311.59
2022-09-16T20:14:13.550Z,99310.00
2022-09-16T20:16:40.857Z,99306.78
2022-09-16T20:19:10.408Z,99305.25
2022-09-16T20:21:41.107Z,99294.66
2022-09-16T20:24:15.814Z,99296.56
2022-09-16T20:26:43.407Z,99294.44
2022-09-16T20:29:10.218Z,99298.03
2022-09-16T20:31:37.576Z,99300.03
2022-09-16T20:34:07.816Z,99303.25
2022-09-16T20:36:38.845Z,99302.75
2022-09-16T20:39:09.822Z,99297.00
2022-09-16T20:41:40.375Z,99304.69
2022-09-16T20:44:07.853Z,99311.16
2022-09-16T20:46:38.801Z,99330.69
2022-09-16T20:49:14.482Z,99342.47
2022-09-16T20:51:42.295Z,99342.28
2022-09-16T20:54:10.978Z,99351.44
2022-09-16T20:56:39.879Z,99351.44
2022-09-16T20:59:12.892Z,99355.56
2022-09-16T21:01:41.471Z,99355.16
2022-09-16T21:04:14.865Z,99350.38
2022-09-16T21:06:41.757Z,99351.91
2022-09-16T21:09:11.407Z,99348.06
2022-09-16T21:11:43.588Z,99339.97
2022-09-16T21:14:12.306Z,99334.38
2022-09-16T21:16:40.895Z,99335.31
2022-09-16T21:19:12.628Z,99338.16
2022-09-16T21:21:42.231Z,99345.94
2022-09-16T21:24:09.754Z,99337.97
2022-09-16T21:26:38.449Z,99355.28
2022-09-16T21:29:11.290Z,99364.97
2022-09-16T21:31:40.560Z,99361.75
2022-09-16T21:34:12.556Z,99366.38
2022-09-16T21:36:40.229Z,99368.75
2022-09-16T21:39:08.067Z,99368.75
2022-09-16T21:41:37.658Z,99370.13
2022-09-16T21:44:07.530Z,99369.13
2022-09-16T21:46:39.953Z,99363.19
2022-09-16T21:49:13.427Z,99366.38
2022-09-16T21:51:40.454Z,99373.88
2022-09-16T21:54:08.756Z,99377.34
2022-09-16T21:56:39.977Z,99379.38
2022-09-16T21:59:10.296Z,99376.16
2022-09-16T22:01:37.444Z,99368.25
2022-09-16T22:04:07.566Z,99383.37
2022-09-16T22:06:34.359Z,99374.88
2022-09-16T22:09:02.288Z,99383.22
2022-09-16T22:11:31.797Z,99395.88
2022-09-16T22:14:01.615Z,99387.91
2022-09-16T22:16:30.476Z,99404.81
2022-09-16T22:19:00.644Z,99410.78
2022-09-16T22:21:29.975Z,99398.41
2022-09-16T22:23:58.653Z,99404.94
2022-09-16T22:26:25.944Z,99413.38
2022-09-16T22:28:52.791Z,99421.66
2022-09-16T22:31:22.388Z,99421.47
2022-09-16T22:33:50.903Z,99426.66
2022-09-16T22:36:19.939Z,99421.53
2022-09-16T22:39:10.856Z,99413.47
2022-09-16T22:41:40.699Z,99418.12
2022-09-16T22:44:11.045Z,99424.66
2022-09-16T22:46:46.863Z,99434.78
2022-09-16T22:49:14.542Z,99435.75
2022-09-16T22:51:41.533Z,99436.06
2022-09-16T22:54:08.991Z,99438.03
2022-09-16T22:56:36.142Z,99436.41
2022-09-16T22:59:08.267Z,99436.25
2022-09-16T23:01:39.303Z,99436.94
2022-09-16T23:04:10.138Z,99432.44
2022-09-16T23:06:37.411Z,99431.13
2022-09-16T23:09:05.773Z,99436.78
2022-09-16T23:11:37.199Z,99427.00
2022-09-16T23:14:08.944Z,99419.34
2022-09-16T23:16:38.911Z,99418.16
2022-09-16T23:19:11.179Z,99423.84
2022-09-16T23:21:38.903Z,99413.72
2022-09-16T23:24:14.002Z,99415.50
2022-09-16T23:26:41.509Z,99415.19
2022-09-16T23:29:09.788Z,99396.59
2022-09-16T23:31:41.419Z,99392.97
2022-09-16T23:34:17.849Z,99395.94
2022-09-16T23:36:44.860Z,99395.47
2022-09-16T23:39:13.715Z,99385.38
2022-09-16T23:41:42.276Z,99382.72
2022-09-16T23:44:12.913Z,99377.06
2022-09-16T23:46:40.057Z,99367.13
2022-09-16T23:49:10.074Z,99369.44
2022-09-16T23:51:39.954Z,99358.28
2022-09-16T23:54:09.828Z,99357.78
2022-09-16T23:56:39.554Z,99353.53
2022-09-16T23:59:09.313Z,99352.47
